createdAt,value
2019-04-29T00:03:48.655Z,4.1
2019-04-29T00:09:21.280Z,3.9
2019-04-29T00:14:53.570Z,4
2019-04-29T00:20:25.892Z,4.4
2019-04-29T00:25:58.021Z,4.1
2019-04-29T00:31:30.259Z,3.8
2019-04-29T00:37:03.533Z,3.4
2019-04-29T00:42:35.944Z,3.3
2019-04-29T00:59:14.841Z,2.7
2019-04-29T02:11:23.227Z,2.8
2019-04-29T05:14:29.769Z,2.5
2019-04-29T05:20:01.931Z,2.8
2019-04-29T05:25:33.972Z,2.8
2019-04-29T05:31:06.124Z,3.1
2019-04-29T05:36:39.299Z,3
2019-04-29T05:42:15.965Z,3.4
2019-04-29T05:47:42.546Z,3.7
2019-04-29T05:53:16.076Z,3.4
2019-04-29T05:58:47.029Z,3.4
2019-04-29T06:04:19.237Z,3.2
2019-04-29T06:09:51.452Z,3.1
2019-04-29T06:15:23.526Z,3.1
2019-04-29T06:21:08.193Z,3.1
2019-04-29T06:26:28.022Z,3.3
2019-04-29T06:32:00.331Z,3.5
2019-04-29T06:37:32.472Z,3.6
2019-04-29T06:43:04.754Z,3.6
2019-04-29T06:48:36.960Z,3.8
2019-04-29T06:54:09.233Z,3.9
2019-04-29T06:59:42.858Z,3.9
2019-04-29T07:05:13.975Z,4.4
2019-04-29T07:10:46.418Z,4.6
2019-04-29T07:16:21.724Z,5.5
2019-04-29T07:21:54.012Z,6
2019-04-29T07:27:25.156Z,6.8
2019-04-29T07:32:58.414Z,7
2019-04-29T07:38:40.959Z,7.3
2019-04-29T07:44:06.624Z,7.2
2019-04-29T07:49:40.890Z,6.8
2019-04-29T07:55:15.198Z,6.9
2019-04-29T08:00:50.005Z,8
2019-04-29T08:06:23.765Z,8.4
2019-04-29T08:11:58.164Z,8.6
2019-04-29T08:17:32.695Z,7.6
2019-04-29T08:23:07.146Z,7.7
2019-04-29T08:28:41.638Z,8.5
2019-04-29T08:34:18.604Z,7.9
2019-04-29T08:40:03.669Z,8.1
2019-04-29T08:45:24.777Z,8.1
2019-04-29T08:50:58.965Z,7.6
2019-04-29T08:56:32.915Z,7.9
2019-04-29T09:02:10.065Z,8.4
2019-04-29T09:07:41.046Z,8.4
2019-04-29T09:13:15.116Z,7.9
2019-04-29T09:18:49.006Z,8.3
2019-04-29T09:24:23.139Z,8.9
2019-04-29T09:29:58.713Z,8.4
2019-04-29T09:41:07.747Z,9.1
2019-04-29T09:57:53.253Z,9.1
2019-04-29T10:03:27.791Z,9.3
2019-04-29T10:14:38.178Z,9.7
2019-04-29T10:20:12.653Z,9.1
2019-04-29T10:25:51.350Z,9.3
2019-04-29T10:31:25.567Z,9.9
2019-04-29T10:36:59.786Z,9.1
2019-04-29T10:42:33.962Z,9.4
2019-04-29T10:48:08.039Z,9.6
2019-04-29T10:53:42.332Z,10.6
2019-04-29T10:59:16.809Z,9.9
2019-04-29T11:04:51.377Z,10.1
2019-04-29T11:10:25.993Z,9.6
2019-04-29T11:16:00.162Z,9.6
2019-04-29T11:21:34.312Z,9.5
2019-04-29T11:27:11.739Z,9.7
2019-04-29T11:32:42.401Z,9.9
2019-04-29T11:38:16.500Z,9.5
2019-04-29T11:43:51.170Z,9.4
2019-04-29T11:49:24.510Z,9.7
2019-04-29T11:54:58.536Z,10
2019-04-29T12:00:32.778Z,10.3
2019-04-29T12:06:07.321Z,10.5
2019-04-29T12:11:41.790Z,10.3
2019-04-29T12:17:16.096Z,9.9
2019-04-29T12:22:50.213Z,10
2019-04-29T12:28:26.790Z,9.9
2019-04-29T12:33:58.373Z,10.1
2019-04-29T12:39:42.648Z,10.1
2019-04-29T12:45:18.862Z,10
2019-04-29T12:50:40.767Z,10
2019-04-29T12:56:14.776Z,9.9
2019-04-29T13:01:51.664Z,9.6
2019-04-29T13:07:22.784Z,9.4
2019-04-29T13:12:58.176Z,9.4
2019-04-29T13:18:30.443Z,9.5
2019-04-29T13:24:14.502Z,9.6
2019-04-29T13:29:38.170Z,9.7
2019-04-29T13:35:12.944Z,9.7
2019-04-29T13:40:46.578Z,9.2
2019-04-29T13:46:20.437Z,8.9
2019-04-29T13:51:54.287Z,8.6
2019-04-29T13:57:27.990Z,8.7
2019-04-29T14:03:02.197Z,8.5
2019-04-29T14:19:46.394Z,8.5
2019-04-29T14:47:43.656Z,8.7
2019-04-29T14:53:19.373Z,8.8
2019-04-29T14:59:05.523Z,8.8
2019-04-29T15:37:54.854Z,9
2019-04-29T15:43:46.344Z,9.2
2019-04-29T15:49:03.135Z,9.5
2019-04-29T15:54:37.471Z,9.2
2019-04-29T16:00:21.053Z,9.3
2019-04-29T16:28:05.050Z,9.4
2019-04-29T16:33:38.815Z,9.5
2019-04-29T16:39:12.753Z,9.5
2019-04-29T16:44:46.541Z,9.5
2019-04-29T16:55:55.238Z,9.6
2019-04-29T17:07:12.097Z,9.6
2019-04-29T17:18:10.636Z,9.5
2019-04-29T17:40:25.483Z,9
